sensor_id;sensor_type;location;lat;lon;timestamp;P1;durP1;ratioP1;P2;durP2;ratioP2
78143;SDS011;67394;52.522;13.622;2023-04-29T00:01:00;9.52;;;6.75;;
78143;SDS011;67394;52.522;13.622;2023-04-29T00:03:27;9.73;;;6.47;;
78143;SDS011;67394;52.522;13.622;2023-04-29T00:05:54;10.95;;;6.43;;
78143;SDS011;67394;52.522;13.622;2023-04-29T00:08:21;10.07;;;7.45;;
78143;SDS011;67394;52.522;13.622;2023-04-29T00:10:47;10.38;;;6.97;;
78143;SDS011;67394;52.522;13.622;2023-04-29T00:13:14;8.48;;;6.72;;
78143;SDS011;67394;52.522;13.622;2023-04-29T00:15:40;8.32;;;6.75;;
78143;SDS011;67394;52.522;13.622;2023-04-29T00:18:07;8.77;;;6.45;;
78143;SDS011;67394;52.522;13.622;2023-04-29T00:23:01;9.45;;;6.35;;
78143;SDS011;67394;52.522;13.622;2023-04-29T00:25:27;10.60;;;6.70;;
78143;SDS011;67394;52.522;13.622;2023-04-29T00:27:55;8.73;;;6.82;;
78143;SDS011;67394;52.522;13.622;2023-04-29T00:30:21;8.20;;;6.65;;
78143;SDS011;67394;52.522;13.622;2023-04-29T00:32:48;9.68;;;6.55;;
78143;SDS011;67394;52.522;13.622;2023-04-29T00:35:14;13.52;;;7.13;;
78143;SDS011;67394;52.522;13.622;2023-04-29T00:37:41;9.82;;;6.85;;
78143;SDS011;67394;52.522;13.622;2023-04-29T00:40:08;11.43;;;6.93;;
78143;SDS011;67394;52.522;13.622;2023-04-29T00:42:35;10.50;;;7.30;;
78143;SDS011;67394;52.522;13.622;2023-04-29T00:45:02;9.65;;;6.60;;
78143;SDS011;67394;52.522;13.622;2023-04-29T00:47:28;9.77;;;6.45;;
78143;SDS011;67394;52.522;13.622;2023-04-29T00:49:55;10.07;;;7.25;;
78143;SDS011;67394;52.522;13.622;2023-04-29T00:52:22;10.65;;;6.78;;
78143;SDS011;67394;52.522;13.622;2023-04-29T00:54:49;9.65;;;6.72;;
78143;SDS011;67394;52.522;13.622;2023-04-29T00:57:17;9.00;;;7.28;;
78143;SDS011;67394;52.522;13.622;2023-04-29T00:59:44;12.73;;;8.02;;
78143;SDS011;67394;52.522;13.622;2023-04-29T01:02:11;11.38;;;8.27;;
78143;SDS011;67394;52.522;13.622;2023-04-29T01:04:39;10.32;;;7.55;;
78143;SDS011;67394;52.522;13.622;2023-04-29T01:07:08;11.57;;;6.75;;
78143;SDS011;67394;52.522;13.622;2023-04-29T01:15:02;11.05;;;7.68;;
78143;SDS011;67394;52.522;13.622;2023-04-29T01:20:36;10.27;;;7.07;;
78143;SDS011;67394;52.522;13.622;2023-04-29T01:23:03;9.85;;;7.15;;
78143;SDS011;67394;52.522;13.622;2023-04-29T01:25:30;10.25;;;7.53;;
78143;SDS011;67394;52.522;13.622;2023-04-29T01:28:21;9.10;;;6.88;;
78143;SDS011;67394;52.522;13.622;2023-04-29T01:36:01;9.90;;;6.75;;
78143;SDS011;67394;52.522;13.622;2023-04-29T01:44:07;7.90;;;6.55;;
78143;SDS011;67394;52.522;13.622;2023-04-29T01:46:38;8.88;;;6.85;;
78143;SDS011;67394;52.522;13.622;2023-04-29T01:49:06;10.80;;;7.68;;
78143;SDS011;67394;52.522;13.622;2023-04-29T01:51:33;10.18;;;7.57;;
78143;SDS011;67394;52.522;13.622;2023-04-29T01:54:00;9.90;;;7.88;;
78143;SDS011;67394;52.522;13.622;2023-04-29T01:56:27;10.65;;;7.93;;
78143;SDS011;67394;52.522;13.622;2023-04-29T01:58:54;10.90;;;8.02;;
78143;SDS011;67394;52.522;13.622;2023-04-29T02:03:47;9.57;;;7.22;;
78143;SDS011;67394;52.522;13.622;2023-04-29T02:06:15;10.90;;;7.68;;
78143;SDS011;67394;52.522;13.622;2023-04-29T02:08:42;9.70;;;7.97;;
78143;SDS011;67394;52.522;13.622;2023-04-29T02:11:08;10.65;;;8.27;;
78143;SDS011;67394;52.522;13.622;2023-04-29T02:13:35;12.57;;;8.32;;
78143;SDS011;67394;52.522;13.622;2023-04-29T02:16:08;12.20;;;8.40;;
78143;SDS011;67394;52.522;13.622;2023-04-29T02:18:36;13.35;;;9.02;;
78143;SDS011;67394;52.522;13.622;2023-04-29T02:21:03;10.50;;;8.38;;
78143;SDS011;67394;52.522;13.622;2023-04-29T02:23:30;15.50;;;8.90;;
78143;SDS011;67394;52.522;13.622;2023-04-29T02:25:56;12.82;;;8.70;;
78143;SDS011;67394;52.522;13.622;2023-04-29T02:28:23;11.80;;;8.75;;
78143;SDS011;67394;52.522;13.622;2023-04-29T02:30:49;13.77;;;8.60;;
78143;SDS011;67394;52.522;13.622;2023-04-29T02:33:16;12.02;;;8.63;;
78143;SDS011;67394;52.522;13.622;2023-04-29T02:35:43;11.27;;;9.10;;
78143;SDS011;67394;52.522;13.622;2023-04-29T02:38:10;12.88;;;8.85;;
78143;SDS011;67394;52.522;13.622;2023-04-29T02:40:40;13.75;;;9.02;;
78143;SDS011;67394;52.522;13.622;2023-04-29T02:43:10;12.10;;;9.07;;
78143;SDS011;67394;52.522;13.622;2023-04-29T02:48:04;9.63;;;8.48;;
78143;SDS011;67394;52.522;13.622;2023-04-29T02:50:31;11.98;;;9.32;;
78143;SDS011;67394;52.522;13.622;2023-04-29T02:52:58;11.20;;;8.32;;
78143;SDS011;67394;52.522;13.622;2023-04-29T02:55:25;11.55;;;9.32;;
78143;SDS011;67394;52.522;13.622;2023-04-29T02:57:51;12.40;;;9.45;;
78143;SDS011;67394;52.522;13.622;2023-04-29T03:00:18;13.40;;;8.90;;
78143;SDS011;67394;52.522;13.622;2023-04-29T03:02:45;15.95;;;9.98;;
78143;SDS011;67394;52.522;13.622;2023-04-29T03:05:11;13.07;;;9.23;;
78143;SDS011;67394;52.522;13.622;2023-04-29T03:07:40;13.98;;;9.95;;
78143;SDS011;67394;52.522;13.622;2023-04-29T03:10:08;13.80;;;9.15;;
78143;SDS011;67394;52.522;13.622;2023-04-29T03:12:34;14.18;;;9.05;;
78143;SDS011;67394;52.522;13.622;2023-04-29T03:15:03;12.02;;;9.63;;
78143;SDS011;67394;52.522;13.622;2023-04-29T03:19:56;14.00;;;8.68;;
78143;SDS011;67394;52.522;13.622;2023-04-29T03:22:23;13.65;;;8.95;;
78143;SDS011;67394;52.522;13.622;2023-04-29T03:24:49;14.20;;;9.52;;
78143;SDS011;67394;52.522;13.622;2023-04-29T03:27:15;13.43;;;9.65;;
78143;SDS011;67394;52.522;13.622;2023-04-29T03:29:42;12.65;;;9.27;;
78143;SDS011;67394;52.522;13.622;2023-04-29T03:32:09;12.50;;;10.02;;
78143;SDS011;67394;52.522;13.622;2023-04-29T03:34:38;14.05;;;10.25;;
78143;SDS011;67394;52.522;13.622;2023-04-29T03:37:05;13.48;;;10.57;;
78143;SDS011;67394;52.522;13.622;2023-04-29T03:39:32;15.77;;;10.38;;
78143;SDS011;67394;52.522;13.622;2023-04-29T03:41:58;17.10;;;10.27;;
78143;SDS011;67394;52.522;13.622;2023-04-29T03:44:25;13.65;;;9.80;;
78143;SDS011;67394;52.522;13.622;2023-04-29T03:46:52;14.95;;;10.48;;
78143;SDS011;67394;52.522;13.622;2023-04-29T03:49:19;17.02;;;10.18;;
78143;SDS011;67394;52.522;13.622;2023-04-29T03:51:45;17.23;;;11.25;;
78143;SDS011;67394;52.522;13.622;2023-04-29T03:54:12;13.55;;;10.65;;
78143;SDS011;67394;52.522;13.622;2023-04-29T03:56:39;14.38;;;11.23;;
78143;SDS011;67394;52.522;13.622;2023-04-29T03:59:05;14.95;;;10.60;;
78143;SDS011;67394;52.522;13.622;2023-04-29T04:01:32;16.27;;;11.20;;
78143;SDS011;67394;52.522;13.622;2023-04-29T04:03:59;17.17;;;11.65;;
78143;SDS011;67394;52.522;13.622;2023-04-29T04:08:52;16.60;;;12.38;;
78143;SDS011;67394;52.522;13.622;2023-04-29T04:11:19;19.92;;;12.20;;
78143;SDS011;67394;52.522;13.622;2023-04-29T04:13:45;18.42;;;12.88;;
78143;SDS011;67394;52.522;13.622;2023-04-29T04:16:12;18.10;;;12.75;;
78143;SDS011;67394;52.522;13.622;2023-04-29T04:18:38;17.38;;;12.00;;
78143;SDS011;67394;52.522;13.622;2023-04-29T04:21:06;17.15;;;12.45;;
78143;SDS011;67394;52.522;13.622;2023-04-29T04:23:34;17.45;;;12.52;;
78143;SDS011;67394;52.522;13.622;2023-04-29T04:26:01;17.95;;;12.88;;
78143;SDS011;67394;52.522;13.622;2023-04-29T04:28:27;18.75;;;13.10;;
78143;SDS011;67394;52.522;13.622;2023-04-29T04:30:54;20.77;;;13.93;;
78143;SDS011;67394;52.522;13.622;2023-04-29T04:33:21;19.38;;;12.65;;
78143;SDS011;67394;52.522;13.622;2023-04-29T04:35:48;21.10;;;13.15;;
78143;SDS011;67394;52.522;13.622;2023-04-29T04:38:14;18.55;;;12.93;;
78143;SDS011;67394;52.522;13.622;2023-04-29T04:40:41;20.45;;;13.98;;
78143;SDS011;67394;52.522;13.622;2023-04-29T04:43:08;19.40;;;14.30;;
78143;SDS011;67394;52.522;13.622;2023-04-29T04:48:02;17.83;;;13.18;;
78143;SDS011;67394;52.522;13.622;2023-04-29T04:50:29;19.60;;;13.07;;
78143;SDS011;67394;52.522;13.622;2023-04-29T04:52:56;23.75;;;14.80;;
78143;SDS011;67394;52.522;13.622;2023-04-29T04:55:23;21.13;;;14.43;;
78143;SDS011;67394;52.522;13.622;2023-04-29T04:57:49;24.27;;;15.30;;
78143;SDS011;67394;52.522;13.622;2023-04-29T05:00:16;23.80;;;16.13;;
78143;SDS011;67394;52.522;13.622;2023-04-29T05:02:43;25.13;;;15.73;;
78143;SDS011;67394;52.522;13.622;2023-04-29T05:05:11;20.83;;;15.02;;
78143;SDS011;67394;52.522;13.622;2023-04-29T05:07:37;21.92;;;15.13;;
78143;SDS011;67394;52.522;13.622;2023-04-29T05:10:04;23.73;;;15.32;;
78143;SDS011;67394;52.522;13.622;2023-04-29T05:12:31;23.95;;;15.25;;
78143;SDS011;67394;52.522;13.622;2023-04-29T05:14:58;22.30;;;15.68;;
78143;SDS011;67394;52.522;13.622;2023-04-29T05:17:26;25.58;;;16.98;;
78143;SDS011;67394;52.522;13.622;2023-04-29T05:19:52;28.38;;;16.75;;
78143;SDS011;67394;52.522;13.622;2023-04-29T05:22:19;22.20;;;15.40;;
78143;SDS011;67394;52.522;13.622;2023-04-29T05:24:46;24.15;;;16.02;;
78143;SDS011;67394;52.522;13.622;2023-04-29T05:27:13;24.50;;;16.17;;
78143;SDS011;67394;52.522;13.622;2023-04-29T05:29:39;24.35;;;16.13;;
78143;SDS011;67394;52.522;13.622;2023-04-29T05:32:06;27.15;;;17.08;;
78143;SDS011;67394;52.522;13.622;2023-04-29T05:34:32;25.30;;;16.60;;
78143;SDS011;67394;52.522;13.622;2023-04-29T05:36:59;31.38;;;18.23;;
78143;SDS011;67394;52.522;13.622;2023-04-29T05:39:26;26.50;;;17.88;;
78143;SDS011;67394;52.522;13.622;2023-04-29T05:41:52;31.13;;;18.58;;
78143;SDS011;67394;52.522;13.622;2023-04-29T05:44:19;31.08;;;19.02;;
78143;SDS011;67394;52.522;13.622;2023-04-29T05:46:45;32.30;;;19.70;;
78143;SDS011;67394;52.522;13.622;2023-04-29T05:49:12;29.23;;;18.17;;
78143;SDS011;67394;52.522;13.622;2023-04-29T05:51:39;28.65;;;18.40;;
78143;SDS011;67394;52.522;13.622;2023-04-29T05:54:05;31.50;;;18.90;;
78143;SDS011;67394;52.522;13.622;2023-04-29T05:56:31;29.13;;;17.83;;
78143;SDS011;67394;52.522;13.622;2023-04-29T05:58:58;32.17;;;19.33;;
78143;SDS011;67394;52.522;13.622;2023-04-29T06:01:25;27.67;;;17.80;;
78143;SDS011;67394;52.522;13.622;2023-04-29T06:03:53;30.08;;;19.63;;
78143;SDS011;67394;52.522;13.622;2023-04-29T06:06:20;29.42;;;18.52;;
78143;SDS011;67394;52.522;13.622;2023-04-29T06:08:46;32.38;;;19.23;;
78143;SDS011;67394;52.522;13.622;2023-04-29T06:11:13;35.17;;;20.02;;
78143;SDS011;67394;52.522;13.622;2023-04-29T06:13:40;29.17;;;18.90;;
78143;SDS011;67394;52.522;13.622;2023-04-29T06:16:07;31.35;;;19.17;;
78143;SDS011;67394;52.522;13.622;2023-04-29T06:18:34;31.00;;;18.25;;
78143;SDS011;67394;52.522;13.622;2023-04-29T06:21:00;32.03;;;18.52;;
78143;SDS011;67394;52.522;13.622;2023-04-29T06:23:27;29.23;;;17.90;;
78143;SDS011;67394;52.522;13.622;2023-04-29T06:25:54;30.20;;;18.13;;
78143;SDS011;67394;52.522;13.622;2023-04-29T06:28:20;34.05;;;19.38;;
78143;SDS011;67394;52.522;13.622;2023-04-29T06:30:47;30.45;;;18.10;;
78143;SDS011;67394;52.522;13.622;2023-04-29T06:33:13;28.75;;;17.98;;
78143;SDS011;67394;52.522;13.622;2023-04-29T06:35:40;30.63;;;18.23;;
78143;SDS011;67394;52.522;13.622;2023-04-29T06:38:06;31.40;;;18.38;;
78143;SDS011;67394;52.522;13.622;2023-04-29T06:40:33;31.38;;;17.77;;
78143;SDS011;67394;52.522;13.622;2023-04-29T06:43:00;31.00;;;18.40;;
78143;SDS011;67394;52.522;13.622;2023-04-29T06:45:27;34.08;;;18.92;;
78143;SDS011;67394;52.522;13.622;2023-04-29T06:47:54;32.85;;;18.50;;
78143;SDS011;67394;52.522;13.622;2023-04-29T06:52:47;30.90;;;17.25;;
78143;SDS011;67394;52.522;13.622;2023-04-29T06:55:13;30.13;;;17.25;;
78143;SDS011;67394;52.522;13.622;2023-04-29T06:57:40;31.17;;;17.33;;
78143;SDS011;67394;52.522;13.622;2023-04-29T07:00:07;35.58;;;19.60;;
78143;SDS011;67394;52.522;13.622;2023-04-29T07:02:34;29.60;;;16.73;;
78143;SDS011;67394;52.522;13.622;2023-04-29T07:05:01;30.35;;;17.23;;
78143;SDS011;67394;52.522;13.622;2023-04-29T07:07:27;32.75;;;16.77;;
78143;SDS011;67394;52.522;13.622;2023-04-29T07:09:54;31.58;;;17.58;;
78143;SDS011;67394;52.522;13.622;2023-04-29T07:12:21;28.35;;;16.73;;
78143;SDS011;67394;52.522;13.622;2023-04-29T07:14:48;28.42;;;16.25;;
78143;SDS011;67394;52.522;13.622;2023-04-29T07:17:14;27.58;;;15.60;;
78143;SDS011;67394;52.522;13.622;2023-04-29T07:19:41;25.52;;;13.57;;
78143;SDS011;67394;52.522;13.622;2023-04-29T07:22:08;27.10;;;14.85;;
78143;SDS011;67394;52.522;13.622;2023-04-29T07:24:35;23.60;;;13.60;;
78143;SDS011;67394;52.522;13.622;2023-04-29T07:27:01;21.75;;;14.27;;
78143;SDS011;67394;52.522;13.622;2023-04-29T07:29:27;24.48;;;14.68;;
78143;SDS011;67394;52.522;13.622;2023-04-29T07:31:54;22.83;;;13.07;;
78143;SDS011;67394;52.522;13.622;2023-04-29T07:34:21;25.63;;;13.30;;
78143;SDS011;67394;52.522;13.622;2023-04-29T07:36:48;24.38;;;12.70;;
78143;SDS011;67394;52.522;13.622;2023-04-29T07:39:14;25.45;;;14.30;;
78143;SDS011;67394;52.522;13.622;2023-04-29T07:41:41;23.60;;;12.80;;
78143;SDS011;67394;52.522;13.622;2023-04-29T07:44:08;21.20;;;12.80;;
78143;SDS011;67394;52.522;13.622;2023-04-29T07:46:34;22.38;;;13.05;;
78143;SDS011;67394;52.522;13.622;2023-04-29T07:49:01;25.52;;;13.00;;
78143;SDS011;67394;52.522;13.622;2023-04-29T07:51:28;22.98;;;13.88;;
78143;SDS011;67394;52.522;13.622;2023-04-29T07:53:55;20.73;;;12.60;;
78143;SDS011;67394;52.522;13.622;2023-04-29T07:56:21;19.95;;;11.98;;
78143;SDS011;67394;52.522;13.622;2023-04-29T07:58:48;20.35;;;12.50;;
78143;SDS011;67394;52.522;13.622;2023-04-29T08:01:14;19.00;;;12.00;;
78143;SDS011;67394;52.522;13.622;2023-04-29T08:03:41;20.05;;;12.63;;
78143;SDS011;67394;52.522;13.622;2023-04-29T08:06:07;21.40;;;12.60;;
78143;SDS011;67394;52.522;13.622;2023-04-29T08:11:01;16.65;;;11.02;;
78143;SDS011;67394;52.522;13.622;2023-04-29T08:13:28;20.70;;;12.35;;
78143;SDS011;67394;52.522;13.622;2023-04-29T08:15:55;19.38;;;12.18;;
78143;SDS011;67394;52.522;13.622;2023-04-29T08:18:21;19.25;;;12.57;;
78143;SDS011;67394;52.522;13.622;2023-04-29T08:20:48;17.92;;;11.85;;
78143;SDS011;67394;52.522;13.622;2023-04-29T08:23:15;15.85;;;11.07;;
78143;SDS011;67394;52.522;13.622;2023-04-29T08:25:42;16.63;;;11.32;;
78143;SDS011;67394;52.522;13.622;2023-04-29T08:28:10;17.00;;;11.75;;
78143;SDS011;67394;52.522;13.622;2023-04-29T08:30:37;13.88;;;9.82;;
78143;SDS011;67394;52.522;13.622;2023-04-29T08:33:05;12.48;;;9.93;;
78143;SDS011;67394;52.522;13.622;2023-04-29T08:35:32;14.18;;;9.88;;
78143;SDS011;67394;52.522;13.622;2023-04-29T08:37:58;12.32;;;9.00;;
78143;SDS011;67394;52.522;13.622;2023-04-29T08:40:25;12.77;;;9.85;;
78143;SDS011;67394;52.522;13.622;2023-04-29T08:42:52;12.13;;;9.43;;
78143;SDS011;67394;52.522;13.622;2023-04-29T08:45:20;14.00;;;10.45;;
78143;SDS011;67394;52.522;13.622;2023-04-29T08:47:50;14.77;;;10.38;;
78143;SDS011;67394;52.522;13.622;2023-04-29T08:50:17;12.60;;;10.25;;
78143;SDS011;67394;52.522;13.622;2023-04-29T08:52:44;16.00;;;11.75;;
78143;SDS011;67394;52.522;13.622;2023-04-29T08:55:10;16.83;;;12.63;;
78143;SDS011;67394;52.522;13.622;2023-04-29T08:57:37;18.98;;;13.10;;
78143;SDS011;67394;52.522;13.622;2023-04-29T09:00:06;16.92;;;11.85;;
78143;SDS011;67394;52.522;13.622;2023-04-29T09:02:37;19.95;;;14.23;;
78143;SDS011;67394;52.522;13.622;2023-04-29T09:05:08;21.48;;;13.07;;
78143;SDS011;67394;52.522;13.622;2023-04-29T09:07:39;18.20;;;13.52;;
78143;SDS011;67394;52.522;13.622;2023-04-29T09:10:07;20.52;;;13.00;;
78143;SDS011;67394;52.522;13.622;2023-04-29T09:12:34;19.67;;;12.95;;
78143;SDS011;67394;52.522;13.622;2023-04-29T09:15:01;19.63;;;13.48;;
78143;SDS011;67394;52.522;13.622;2023-04-29T09:17:42;18.20;;;13.15;;
78143;SDS011;67394;52.522;13.622;2023-04-29T09:22:49;21.63;;;14.27;;
78143;SDS011;67394;52.522;13.622;2023-04-29T09:25:16;18.60;;;12.05;;
78143;SDS011;67394;52.522;13.622;2023-04-29T09:27:43;20.08;;;13.05;;
78143;SDS011;67394;52.522;13.622;2023-04-29T09:30:10;19.80;;;13.32;;
78143;SDS011;67394;52.522;13.622;2023-04-29T09:32:37;17.67;;;12.55;;
78143;SDS011;67394;52.522;13.622;2023-04-29T09:37:46;25.08;;;15.27;;
78143;SDS011;67394;52.522;13.622;2023-04-29T09:40:29;24.85;;;15.05;;
78143;SDS011;67394;52.522;13.622;2023-04-29T09:42:57;27.95;;;16.42;;
78143;SDS011;67394;52.522;13.622;2023-04-29T09:45:33;33.42;;;17.70;;
78143;SDS011;67394;52.522;13.622;2023-04-29T09:48:04;35.67;;;19.67;;
78143;SDS011;67394;52.522;13.622;2023-04-29T09:50:31;33.08;;;18.98;;
78143;SDS011;67394;52.522;13.622;2023-04-29T09:52:58;34.08;;;17.77;;
78143;SDS011;67394;52.522;13.622;2023-04-29T09:55:25;40.17;;;20.38;;
78143;SDS011;67394;52.522;13.622;2023-04-29T09:57:52;43.03;;;20.83;;
78143;SDS011;67394;52.522;13.622;2023-04-29T10:02:46;38.35;;;20.92;;
78143;SDS011;67394;52.522;13.622;2023-04-29T10:05:16;44.25;;;20.52;;
78143;SDS011;67394;52.522;13.622;2023-04-29T10:07:45;48.92;;;23.23;;
78143;SDS011;67394;52.522;13.622;2023-04-29T10:10:15;44.00;;;24.10;;
78143;SDS011;67394;52.522;13.622;2023-04-29T10:12:42;47.60;;;24.25;;
78143;SDS011;67394;52.522;13.622;2023-04-29T10:15:21;42.35;;;22.15;;
78143;SDS011;67394;52.522;13.622;2023-04-29T10:18:08;47.55;;;23.63;;
78143;SDS011;67394;52.522;13.622;2023-04-29T10:20:45;46.47;;;24.25;;
78143;SDS011;67394;52.522;13.622;2023-04-29T10:23:13;48.25;;;24.77;;
78143;SDS011;67394;52.522;13.622;2023-04-29T10:25:41;48.72;;;27.10;;
78143;SDS011;67394;52.522;13.622;2023-04-29T10:28:13;55.92;;;29.25;;
78143;SDS011;67394;52.522;13.622;2023-04-29T10:30:41;46.28;;;26.35;;
78143;SDS011;67394;52.522;13.622;2023-04-29T10:33:09;52.95;;;26.05;;
78143;SDS011;67394;52.522;13.622;2023-04-29T10:38:05;43.00;;;24.70;;
78143;SDS011;67394;52.522;13.622;2023-04-29T10:40:44;47.15;;;24.88;;
78143;SDS011;67394;52.522;13.622;2023-04-29T10:43:12;44.50;;;25.83;;
78143;SDS011;67394;52.522;13.622;2023-04-29T10:45:40;46.53;;;26.42;;
78143;SDS011;67394;52.522;13.622;2023-04-29T10:48:10;46.50;;;26.30;;
78143;SDS011;67394;52.522;13.622;2023-04-29T10:53:14;47.72;;;25.35;;
78143;SDS011;67394;52.522;13.622;2023-04-29T10:55:42;49.63;;;27.15;;
78143;SDS011;67394;52.522;13.622;2023-04-29T10:58:34;43.03;;;25.00;;
78143;SDS011;67394;52.522;13.622;2023-04-29T11:01:06;43.15;;;24.98;;
78143;SDS011;67394;52.522;13.622;2023-04-29T11:03:48;42.60;;;25.15;;
78143;SDS011;67394;52.522;13.622;2023-04-29T11:06:41;43.70;;;24.52;;
78143;SDS011;67394;52.522;13.622;2023-04-29T11:09:10;35.22;;;23.25;;
78143;SDS011;67394;52.522;13.622;2023-04-29T11:14:53;36.97;;;22.90;;
78143;SDS011;67394;52.522;13.622;2023-04-29T11:17:16;37.47;;;24.35;;
78143;SDS011;67394;52.522;13.622;2023-04-29T11:19:48;39.17;;;23.73;;
78143;SDS011;67394;52.522;13.622;2023-04-29T11:24:49;31.75;;;21.05;;
78143;SDS011;67394;52.522;13.622;2023-04-29T11:27:37;34.00;;;22.23;;
78143;SDS011;67394;52.522;13.622;2023-04-29T11:30:05;29.88;;;19.75;;
78143;SDS011;67394;52.522;13.622;2023-04-29T11:37:37;27.10;;;18.83;;
78143;SDS011;67394;52.522;13.622;2023-04-29T11:40:04;32.45;;;20.55;;
78143;SDS011;67394;52.522;13.622;2023-04-29T11:42:36;27.58;;;18.77;;
78143;SDS011;67394;52.522;13.622;2023-04-29T11:45:07;26.23;;;19.77;;
78143;SDS011;67394;52.522;13.622;2023-04-29T11:47:33;27.00;;;18.45;;
78143;SDS011;67394;52.522;13.622;2023-04-29T11:50:03;24.42;;;18.00;;
78143;SDS011;67394;52.522;13.622;2023-04-29T11:52:31;24.67;;;17.85;;
78143;SDS011;67394;52.522;13.622;2023-04-29T11:54:58;23.38;;;17.45;;
78143;SDS011;67394;52.522;13.622;2023-04-29T11:57:25;25.30;;;16.20;;
78143;SDS011;67394;52.522;13.622;2023-04-29T11:59:51;22.08;;;16.10;;
78143;SDS011;67394;52.522;13.622;2023-04-29T12:02:22;21.00;;;16.83;;
78143;SDS011;67394;52.522;13.622;2023-04-29T12:04:49;21.83;;;14.93;;
78143;SDS011;67394;52.522;13.622;2023-04-29T12:07:16;21.02;;;15.40;;
78143;SDS011;67394;52.522;13.622;2023-04-29T12:09:43;20.40;;;14.52;;
78143;SDS011;67394;52.522;13.622;2023-04-29T12:12:10;20.73;;;15.38;;
78143;SDS011;67394;52.522;13.622;2023-04-29T12:14:37;19.05;;;14.77;;
78143;SDS011;67394;52.522;13.622;2023-04-29T12:17:05;19.65;;;15.45;;
78143;SDS011;67394;52.522;13.622;2023-04-29T12:19:32;19.98;;;15.80;;
78143;SDS011;67394;52.522;13.622;2023-04-29T12:22:01;21.60;;;14.32;;
78143;SDS011;67394;52.522;13.622;2023-04-29T12:24:28;19.05;;;14.20;;
78143;SDS011;67394;52.522;13.622;2023-04-29T12:26:59;18.40;;;13.90;;
78143;SDS011;67394;52.522;13.622;2023-04-29T12:29:26;16.38;;;12.57;;
78143;SDS011;67394;52.522;13.622;2023-04-29T12:31:52;19.67;;;13.15;;
78143;SDS011;67394;52.522;13.622;2023-04-29T12:34:29;15.23;;;11.90;;
78143;SDS011;67394;52.522;13.622;2023-04-29T12:36:59;16.40;;;12.25;;
78143;SDS011;67394;52.522;13.622;2023-04-29T12:39:27;16.17;;;11.10;;
78143;SDS011;67394;52.522;13.622;2023-04-29T12:41:57;17.17;;;12.77;;
78143;SDS011;67394;52.522;13.622;2023-04-29T12:44:24;18.70;;;12.60;;
78143;SDS011;67394;52.522;13.622;2023-04-29T12:49:18;13.90;;;11.57;;
78143;SDS011;67394;52.522;13.622;2023-04-29T12:51:44;15.32;;;11.48;;
78143;SDS011;67394;52.522;13.622;2023-04-29T12:54:11;21.63;;;13.13;;
78143;SDS011;67394;52.522;13.622;2023-04-29T12:56:37;17.35;;;11.60;;
78143;SDS011;67394;52.522;13.622;2023-04-29T12:59:05;14.68;;;11.35;;
78143;SDS011;67394;52.522;13.622;2023-04-29T13:01:32;16.42;;;11.00;;
78143;SDS011;67394;52.522;13.622;2023-04-29T13:03:59;15.55;;;11.27;;
78143;SDS011;67394;52.522;13.622;2023-04-29T13:06:26;13.88;;;10.55;;
78143;SDS011;67394;52.522;13.622;2023-04-29T13:08:52;15.27;;;11.15;;
78143;SDS011;67394;52.522;13.622;2023-04-29T13:11:19;14.27;;;10.50;;
78143;SDS011;67394;52.522;13.622;2023-04-29T13:13:46;16.45;;;10.00;;
78143;SDS011;67394;52.522;13.622;2023-04-29T13:16:13;12.80;;;9.88;;
78143;SDS011;67394;52.522;13.622;2023-04-29T13:18:39;13.07;;;9.52;;
78143;SDS011;67394;52.522;13.622;2023-04-29T13:21:24;13.38;;;10.00;;
78143;SDS011;67394;52.522;13.622;2023-04-29T13:23:50;16.13;;;10.00;;
78143;SDS011;67394;52.522;13.622;2023-04-29T13:26:17;12.43;;;9.18;;
78143;SDS011;67394;52.522;13.622;2023-04-29T13:28:43;13.38;;;9.70;;
78143;SDS011;67394;52.522;13.622;2023-04-29T13:31:11;12.68;;;8.88;;
78143;SDS011;67394;52.522;13.622;2023-04-29T13:33:37;12.90;;;9.50;;
78143;SDS011;67394;52.522;13.622;2023-04-29T13:36:05;14.38;;;10.00;;
78143;SDS011;67394;52.522;13.622;2023-04-29T13:38:32;13.93;;;9.70;;
78143;SDS011;67394;52.522;13.622;2023-04-29T13:40:59;11.65;;;8.95;;
78143;SDS011;67394;52.522;13.622;2023-04-29T13:43:25;11.82;;;8.32;;
78143;SDS011;67394;52.522;13.622;2023-04-29T13:46:04;13.85;;;9.50;;
78143;SDS011;67394;52.522;13.622;2023-04-29T13:48:33;14.75;;;8.10;;
78143;SDS011;67394;52.522;13.622;2023-04-29T13:51:19;9.75;;;8.18;;
78143;SDS011;67394;52.522;13.622;2023-04-29T13:53:49;10.90;;;8.15;;
78143;SDS011;67394;52.522;13.622;2023-04-29T13:56:18;10.82;;;8.50;;
78143;SDS011;67394;52.522;13.622;2023-04-29T13:58:47;13.15;;;8.20;;
78143;SDS011;67394;52.522;13.622;2023-04-29T14:01:17;11.07;;;7.63;;
78143;SDS011;67394;52.522;13.622;2023-04-29T14:04:03;10.70;;;7.82;;
78143;SDS011;67394;52.522;13.622;2023-04-29T14:08:57;9.32;;;7.32;;
78143;SDS011;67394;52.522;13.622;2023-04-29T14:11:25;9.35;;;7.22;;
78143;SDS011;67394;52.522;13.622;2023-04-29T14:13:51;9.43;;;7.50;;
78143;SDS011;67394;52.522;13.622;2023-04-29T14:16:18;11.65;;;7.60;;
78143;SDS011;67394;52.522;13.622;2023-04-29T14:18:46;9.93;;;7.72;;
78143;SDS011;67394;52.522;13.622;2023-04-29T14:21:12;10.70;;;8.30;;
78143;SDS011;67394;52.522;13.622;2023-04-29T14:23:39;11.30;;;7.55;;
78143;SDS011;67394;52.522;13.622;2023-04-29T14:26:05;10.45;;;8.15;;
78143;SDS011;67394;52.522;13.622;2023-04-29T14:28:52;9.48;;;7.00;;
78143;SDS011;67394;52.522;13.622;2023-04-29T14:31:19;11.30;;;8.02;;
78143;SDS011;67394;52.522;13.622;2023-04-29T14:33:45;10.43;;;7.75;;
78143;SDS011;67394;52.522;13.622;2023-04-29T14:36:12;12.82;;;8.45;;
78143;SDS011;67394;52.522;13.622;2023-04-29T14:38:39;10.85;;;7.93;;
78143;SDS011;67394;52.522;13.622;2023-04-29T14:41:06;12.43;;;8.30;;
78143;SDS011;67394;52.522;13.622;2023-04-29T14:43:32;11.32;;;7.57;;
78143;SDS011;67394;52.522;13.622;2023-04-29T14:46:00;10.63;;;7.90;;
78143;SDS011;67394;52.522;13.622;2023-04-29T14:48:27;9.73;;;7.47;;
78143;SDS011;67394;52.522;13.622;2023-04-29T14:50:54;9.63;;;7.90;;
78143;SDS011;67394;52.522;13.622;2023-04-29T14:53:20;11.35;;;7.80;;
78143;SDS011;67394;52.522;13.622;2023-04-29T14:55:49;11.02;;;8.02;;
78143;SDS011;67394;52.522;13.622;2023-04-29T14:58:17;11.20;;;7.55;;
78143;SDS011;67394;52.522;13.622;2023-04-29T15:00:44;11.52;;;8.10;;
78143;SDS011;67394;52.522;13.622;2023-04-29T15:03:10;10.63;;;7.63;;
78143;SDS011;67394;52.522;13.622;2023-04-29T15:05:47;11.80;;;7.88;;
78143;SDS011;67394;52.522;13.622;2023-04-29T15:08:14;11.52;;;7.72;;
78143;SDS011;67394;52.522;13.622;2023-04-29T15:10:40;12.02;;;7.45;;
78143;SDS011;67394;52.522;13.622;2023-04-29T15:13:07;11.90;;;7.68;;
78143;SDS011;67394;52.522;13.622;2023-04-29T15:15:33;11.68;;;7.47;;
78143;SDS011;67394;52.522;13.622;2023-04-29T15:18:00;10.18;;;7.32;;
78143;SDS011;67394;52.522;13.622;2023-04-29T15:20:27;12.15;;;7.10;;
78143;SDS011;67394;52.522;13.622;2023-04-29T15:22:54;10.45;;;6.82;;
78143;SDS011;67394;52.522;13.622;2023-04-29T15:25:23;9.15;;;7.18;;
78143;SDS011;67394;52.522;13.622;2023-04-29T15:27:52;9.95;;;6.65;;